Time;durP1;ratioP1;P1;durP2;ratioP2;P2;SDS_P1;SDS_P2;PMS_P1;PMS_P2;Temp;Humidity;BMP_temperature;BMP_pressure;BME280_temperature;BME280_humidity;BME280_pressure;Samples;Min_cycle;Max_cycle;Signal;HPM_P1;HPM_P2
2021/01/04 00:00:32;;;;;;;15.87;11.77;;;;;;;3.15;65.09;95056.00;5081144;28;20199;-78
2021/01/04 00:03:27;;;;;;;15.33;11.57;;;;;;;3.01;66.01;95049.69;5091202;28;20746;-78
2021/01/04 00:06:04;;;;;;;14.83;11.93;;;;;;;3.05;65.79;95048.47;5077112;28;20205;-78
2021/01/04 00:08:44;;;;;;;15.27;11.90;;;;;;;3.07;65.87;95046.59;5070841;28;20207;-79
2021/01/04 00:11:22;;;;;;;13.93;11.33;;;;;;;3.05;65.25;95045.91;5087104;28;20636;-78
2021/01/04 00:14:03;;;;;;;15.07;11.70;;;;;;;3.08;65.95;95050.69;5091326;28;20216;-78
2021/01/04 00:16:39;;;;;;;16.77;12.13;;;;;;;3.15;65.78;95053.47;5072438;28;20870;-77
2021/01/04 00:19:11;;;;;;;15.03;11.60;;;;;;;3.15;65.38;95050.13;5084065;28;20570;-78
2021/01/04 00:21:49;;;;;;;14.80;12.27;;;;;;;3.13;65.41;95048.53;5071364;28;20215;-77
2021/01/04 00:24:23;;;;;;;16.30;11.67;;;;;;;3.18;65.37;95054.94;5070905;28;20199;-78
2021/01/04 00:26:52;;;;;;;14.30;11.67;;;;;;;3.22;65.25;95046.88;5071258;28;20196;-78
2021/01/04 00:29:20;;;;;;;13.53;10.73;;;;;;;3.26;64.66;95047.38;5090189;28;20678;-79
2021/01/04 00:31:50;;;;;;;15.03;12.10;;;;;;;3.27;64.42;95046.44;5070819;28;20208;-79
2021/01/04 00:34:20;;;;;;;15.10;12.00;;;;;;;3.25;64.14;95041.50;5070035;28;20196;-78
2021/01/04 00:37:10;;;;;;;15.83;12.50;;;;;;;3.27;64.73;95043.91;5088061;28;20234;-78
2021/01/04 00:39:47;;;;;;;16.03;12.67;;;;;;;3.31;64.65;95053.63;5087458;28;20201;-79
2021/01/04 00:42:28;;;;;;;16.50;12.13;;;;;;;3.22;64.27;95054.50;5071641;28;20246;-78
2021/01/04 00:45:04;;;;;;;15.43;12.20;;;;;;;3.24;64.67;95055.16;5091009;28;20207;-78
2021/01/04 00:47:37;;;;;;;13.47;10.77;;;;;;;3.25;64.39;95055.97;5088829;28;20192;-79
2021/01/04 00:50:08;;;;;;;15.50;12.10;;;;;;;3.18;64.91;95054.94;5084765;28;20811;-78
2021/01/04 00:52:53;;;;;;;17.60;12.37;;;;;;;3.22;64.84;95062.13;5079716;28;20223;-78
2021/01/04 00:55:34;;;;;;;16.10;11.80;;;;;;;3.24;64.86;95057.72;5090542;28;20265;-77
2021/01/04 00:58:18;;;;;;;15.40;12.20;;;;;;;3.30;64.61;95048.69;5077522;28;20195;-78
2021/01/04 01:00:50;;;;;;;14.87;11.77;;;;;;;3.32;64.66;95055.22;5081320;28;20192;-78
2021/01/04 01:03:34;;;;;;;14.73;11.27;;;;;;;3.27;64.37;95064.25;5089971;28;20231;-78
2021/01/04 01:06:07;;;;;;;14.10;11.53;;;;;;;3.16;64.59;95055.06;5076325;28;20716;-78
2021/01/04 01:08:37;;;;;;;15.20;11.43;;;;;;;3.15;64.73;95055.22;5069849;28;20189;-78
2021/01/04 01:11:07;;;;;;;13.07;11.07;;;;;;;3.02;64.39;95065.75;5083825;28;20192;-79
2021/01/04 01:13:54;;;;;;;15.67;11.50;;;;;;;2.93;64.98;95061.50;5090099;28;20792;-79
2021/01/04 01:16:51;;;;;;;12.70;10.63;;;;;;;2.86;64.35;95071.47;5073889;28;20239;-77
2021/01/04 01:19:24;;;;;;;13.13;10.90;;;;;;;2.83;64.87;95066.66;5069254;28;20598;-79
2021/01/04 01:21:50;;;;;;;12.83;10.43;;;;;;;2.83;64.98;95065.84;5073809;28;20249;-78
2021/01/04 01:24:17;;;;;;;13.20;10.80;;;;;;;2.87;64.62;95078.16;5089209;28;20200;-77
2021/01/04 01:27:15;;;;;;;13.60;11.43;;;;;;;2.93;64.61;95074.22;5070665;28;20193;-78
2021/01/04 01:30:09;;;;;;;13.40;10.43;;;;;;;2.91;64.39;95071.81;5044643;28;20211;-78
2021/01/04 01:33:05;;;;;;;11.30;9.13;;;;;;;2.82;64.09;95075.22;5089176;28;20696;-78
2021/01/04 01:35:55;;;;;;;11.83;9.20;;;;;;;2.75;64.00;95077.50;5080134;28;20193;-78
2021/01/04 01:38:57;;;;;;;12.97;9.60;;;;;;;2.61;64.12;95074.66;5087276;28;20192;-78
2021/01/04 01:42:07;;;;;;;10.77;8.87;;;;;;;2.67;64.08;95077.44;5069206;28;20258;-78
2021/01/04 01:44:42;;;;;;;12.13;9.13;;;;;;;2.69;63.83;95070.44;5083675;28;20203;-80
2021/01/04 01:47:14;;;;;;;10.03;8.60;;;;;;;2.66;63.99;95077.56;5089431;28;20196;-79
2021/01/04 01:49:53;;;;;;;10.87;8.50;;;;;;;2.73;63.75;95076.84;5078077;28;20336;-78
2021/01/04 01:52:47;;;;;;;10.57;8.60;;;;;;;2.85;63.69;95074.94;5078040;28;20569;-79
2021/01/04 01:55:33;;;;;;;11.20;9.10;;;;;;;2.93;63.95;95067.38;5068138;28;20373;-77
2021/01/04 01:58:47;;;;;;;12.03;9.73;;;;;;;2.99;63.49;95066.81;5084333;28;20306;-78
2021/01/04 02:01:25;;;;;;;10.00;8.67;;;;;;;3.06;63.61;95067.06;5071364;28;20730;-79
2021/01/04 02:03:57;;;;;;;11.80;9.73;;;;;;;3.07;63.77;95063.59;5068346;28;20274;-79
2021/01/04 02:06:34;;;;;;;11.90;9.97;;;;;;;3.00;63.91;95070.16;5086759;28;20188;-78
2021/01/04 02:09:06;;;;;;;11.90;9.70;;;;;;;3.03;63.81;95069.88;5088424;28;20616;-78
2021/01/04 02:11:42;;;;;;;10.87;9.43;;;;;;;3.01;63.07;95070.03;5069052;28;20200;-79
2021/01/04 02:14:13;;;;;;;11.13;9.60;;;;;;;2.89;63.48;95072.88;5068202;28;20200;-79
2021/01/04 02:16:54;;;;;;;10.97;9.13;;;;;;;2.66;64.51;95077.56;5068624;28;20220;-78
2021/01/04 02:19:36;;;;;;;11.87;9.57;;;;;;;2.62;64.75;95074.50;5068608;28;20204;-77
2021/01/04 02:22:22;;;;;;;11.40;9.20;;;;;;;2.69;64.41;95067.13;5077393;28;20590;-77
2021/01/04 02:24:49;;;;;;;11.10;9.30;;;;;;;2.74;64.79;95067.50;5067544;28;20196;-79
2021/01/04 02:27:21;;;;;;;11.80;10.07;;;;;;;2.85;64.69;95067.31;5068957;28;20204;-78
2021/01/04 02:29:47;;;;;;;11.17;9.47;;;;;;;2.87;64.23;95065.44;5071554;28;20204;-78
2021/01/04 02:32:13;;;;;;;14.20;10.47;;;;;;;2.91;64.43;95065.94;5087175;28;20223;-78
2021/01/04 02:34:41;;;;;;;12.10;9.97;;;;;;;2.95;63.77;95062.16;5085708;28;20230;-79
2021/01/04 02:37:09;;;;;;;12.30;9.60;;;;;;;2.97;63.95;95053.44;5079463;28;20270;-78
2021/01/04 02:39:40;;;;;;;10.57;9.10;;;;;;;3.03;63.43;95060.50;5088166;28;20200;-77
2021/01/04 02:42:13;;;;;;;9.83;8.70;;;;;;;2.89;63.25;95060.19;5069102;28;20631;-79
2021/01/04 02:44:40;;;;;;;10.87;9.27;;;;;;;2.86;63.75;95056.22;5084174;28;20196;-78
2021/01/04 02:47:41;;;;;;;12.27;9.53;;;;;;;2.97;63.46;95055.19;5069144;28;20197;-79
2021/01/04 02:50:22;;;;;;;12.00;10.03;;;;;;;2.99;63.04;95055.84;5068744;28;20300;-78
2021/01/04 02:53:16;;;;;;;12.97;9.90;;;;;;;3.05;62.79;95047.66;5084843;28;20224;-79
2021/01/04 02:56:00;;;;;;;11.60;9.53;;;;;;;3.07;63.34;95046.59;5077249;28;20208;-78
2021/01/04 02:58:40;;;;;;;11.80;9.73;;;;;;;3.12;62.88;95058.84;5068360;28;20196;-79
2021/01/04 03:01:12;;;;;;;12.57;9.80;;;;;;;2.96;63.11;95067.09;5081455;28;20200;-78
2021/01/04 03:03:40;;;;;;;13.73;10.00;;;;;;;2.81;63.92;95060.91;5090386;28;20223;-77
2021/01/04 03:06:10;;;;;;;13.17;9.83;;;;;;;2.83;64.02;95065.84;5090018;28;20434;-78
2021/01/04 03:08:36;;;;;;;13.33;9.97;;;;;;;2.95;63.55;95069.78;5092588;28;20253;-78
2021/01/04 03:11:03;;;;;;;12.00;9.80;;;;;;;3.02;63.91;95066.53;5079413;28;20746;-76
2021/01/04 03:13:40;;;;;;;11.87;9.83;;;;;;;2.96;63.22;95069.66;5071299;28;20228;-78
2021/01/04 03:16:15;;;;;;;14.17;10.00;;;;;;;2.96;63.25;95069.66;5085039;28;20279;-78
2021/01/04 03:18:47;;;;;;;14.13;10.37;;;;;;;3.03;63.46;95065.59;5092000;28;20217;-80
2021/01/04 03:21:14;;;;;;;12.83;10.33;;;;;;;3.08;62.93;95068.50;5077131;28;20254;-79
2021/01/04 03:23:47;;;;;;;12.93;9.87;;;;;;;3.07;63.09;95066.91;5071092;28;20224;-78
2021/01/04 03:26:18;;;;;;;13.37;9.87;;;;;;;3.11;62.84;95069.97;5085046;28;20196;-78
2021/01/04 03:28:45;;;;;;;11.83;10.17;;;;;;;3.02;62.71;95070.84;5091271;28;20196;-78
2021/01/04 03:31:11;;;;;;;12.87;10.37;;;;;;;2.96;62.91;95071.38;5078330;28;20200;-78
2021/01/04 03:33:38;;;;;;;12.73;10.50;;;;;;;2.75;63.70;95076.72;5070999;28;20586;-78
2021/01/04 03:36:05;;;;;;;14.17;11.03;;;;;;;2.59;64.28;95076.53;5083909;28;20301;-78
2021/01/04 03:38:32;;;;;;;13.63;11.40;;;;;;;2.65;64.68;95078.50;5084956;28;20843;-78
2021/01/04 03:40:58;;;;;;;13.90;10.80;;;;;;;2.64;64.46;95079.44;5081844;28;20253;-78
2021/01/04 03:43:25;;;;;;;13.80;10.70;;;;;;;2.71;64.37;95067.75;5072097;28;20290;-78
2021/01/04 03:45:55;;;;;;;13.63;10.90;;;;;;;2.78;64.42;95068.81;5081633;28;20199;-77
2021/01/04 03:48:22;;;;;;;13.27;10.87;;;;;;;2.88;63.83;95069.56;5091731;28;20200;-77
2021/01/04 03:50:48;;;;;;;13.80;10.70;;;;;;;2.92;64.02;95068.31;5082426;28;20319;-79
2021/01/04 03:53:14;;;;;;;13.13;10.60;;;;;;;2.90;63.79;95069.41;5071363;28;20224;-79
2021/01/04 03:55:41;;;;;;;15.53;11.10;;;;;;;2.80;63.70;95061.03;5079698;28;20204;-78
2021/01/04 03:58:07;;;;;;;12.63;10.80;;;;;;;2.78;64.30;95064.53;5091919;28;20216;-79
2021/01/04 04:00:34;;;;;;;13.40;10.93;;;;;;;2.83;64.16;95066.66;5089969;28;20196;-79
2021/01/04 04:03:01;;;;;;;13.60;10.60;;;;;;;2.85;63.94;95056.34;5091278;28;20254;-79
2021/01/04 04:05:27;;;;;;;12.77;10.83;;;;;;;2.82;63.82;95059.16;5082335;28;20909;-78
2021/01/04 04:07:53;;;;;;;14.83;11.33;;;;;;;2.89;64.33;95057.63;5070738;28;20197;-78
2021/01/04 04:10:20;;;;;;;14.63;11.30;;;;;;;2.90;63.92;95057.50;5076520;28;20199;-78
2021/01/04 04:12:46;;;;;;;13.20;10.87;;;;;;;2.92;63.57;95058.16;5090868;28;20307;-78
2021/01/04 04:15:15;;;;;;;15.10;11.33;;;;;;;2.93;63.59;95056.41;5089175;28;20188;-79
2021/01/04 04:17:41;;;;;;;15.33;10.63;;;;;;;2.98;63.54;95060.13;5091234;28;20219;-79
2021/01/04 04:20:10;;;;;;;13.23;10.80;;;;;;;3.01;63.02;95054.78;5085315;28;20196;-78
2021/01/04 04:22:36;;;;;;;12.67;10.90;;;;;;;2.89;63.66;95067.81;5070199;28;20224;-79
2021/01/04 04:25:05;;;;;;;13.93;11.00;;;;;;;2.73;64.35;95059.06;5070941;28;20197;-78
2021/01/04 04:27:32;;;;;;;14.03;11.90;;;;;;;2.55;64.80;95065.84;5070282;28;20201;-79
2021/01/04 04:29:57;;;;;;;14.47;11.20;;;;;;;2.51;64.82;95059.44;5074839;28;20254;-79
2021/01/04 04:32:23;;;;;;;13.77;11.30;;;;;;;2.49;65.31;95063.88;5090954;28;20216;-79
2021/01/04 04:34:50;;;;;;;14.47;11.47;;;;;;;2.51;65.29;95067.03;5074274;28;20227;-78
2021/01/04 04:37:18;;;;;;;13.30;11.13;;;;;;;2.52;64.76;95066.09;5090640;28;20384;-78
2021/01/04 04:39:44;;;;;;;14.13;11.77;;;;;;;2.54;64.86;95063.44;5073539;28;20211;-78
2021/01/04 04:42:12;;;;;;;13.77;11.13;;;;;;;2.50;65.15;95060.41;5069685;28;20221;-78
2021/01/04 04:44:45;;;;;;;14.73;12.03;;;;;;;2.41;65.38;95056.94;5071034;28;20193;-80
2021/01/04 04:47:21;;;;;;;13.77;11.43;;;;;;;2.33;65.36;95059.34;5069989;28;20200;-78
2021/01/04 04:50:01;;;;;;;14.97;11.47;;;;;;;2.36;65.78;95054.00;5081268;28;20192;-79
2021/01/04 04:53:06;;;;;;;14.90;11.10;;;;;;;2.41;65.71;95066.31;5070572;28;20209;-78
2021/01/04 04:55:57;;;;;;;12.87;10.33;;;;;;;2.29;65.67;95058.06;5069653;28;20269;-78
2021/01/04 04:58:39;;;;;;;13.27;10.97;;;;;;;2.14;66.23;95061.97;5072910;28;20211;-77
2021/01/04 05:01:14;;;;;;;14.57;11.37;;;;;;;2.11;65.72;95054.66;5074660;28;20238;-79
2021/01/04 05:03:54;;;;;;;13.10;11.03;;;;;;;2.26;66.28;95062.63;5074306;28;20223;-77
2021/01/04 05:06:32;;;;;;;14.27;11.00;;;;;;;2.33;65.54;95056.81;5090924;28;20203;-78
2021/01/04 05:09:13;;;;;;;12.53;10.90;;;;;;;2.44;64.98;95063.47;5085108;28;20565;-85
2021/01/04 05:11:41;;;;;;;14.23;11.03;;;;;;;2.53;65.36;95065.16;5071300;28;20201;-79
2021/01/04 05:14:19;;;;;;;15.63;10.03;;;;;;;3.02;93.97;95061.47;5074966;28;20224;-76
2021/01/04 05:16:57;;;;;;;14.23;11.10;;;;;;;3.33;66.59;95058.56;5090429;28;20219;-78
2021/01/04 05:19:41;;;;;;;15.10;10.70;;;;;;;3.09;64.97;95062.47;5077536;28;20586;-80
2021/01/04 05:22:37;;;;;;;12.97;10.37;;;;;;;2.87;64.37;95074.81;5080482;28;20223;-79
2021/01/04 05:25:39;;;;;;;13.80;10.17;;;;;;;2.80;64.99;95071.22;5069725;28;20781;-78
2021/01/04 05:28:40;;;;;;;13.83;10.83;;;;;;;2.85;65.18;95067.31;5071631;28;20233;-78
2021/01/04 05:31:31;;;;;;;12.50;11.07;;;;;;;2.85;65.12;95071.59;5071327;28;20706;-78
2021/01/04 05:34:03;;;;;;;12.47;10.43;;;;;;;2.76;64.78;95066.41;5081409;28;20224;-78
2021/01/04 05:37:03;;;;;;;13.53;10.50;;;;;;;2.80;64.82;95071.22;5087025;28;20273;-78
2021/01/04 05:39:44;;;;;;;14.77;10.73;;;;;;;2.88;65.13;95067.03;5070395;28;20209;-79
2021/01/04 05:42:31;;;;;;;13.50;10.77;;;;;;;2.94;64.87;95063.09;5077314;28;20223;-77
2021/01/04 05:45:10;;;;;;;12.33;10.60;;;;;;;2.85;64.69;95063.97;5081719;28;20287;-80
2021/01/04 05:47:42;;;;;;;15.37;11.63;;;;;;;2.64;64.63;95064.22;5088965;28;20204;-80
2021/01/04 05:50:19;;;;;;;14.43;11.47;;;;;;;2.52;65.30;95050.88;5088713;28;20192;-81
2021/01/04 05:52:46;;;;;;;14.07;11.53;;;;;;;2.48;65.78;95053.84;5088952;28;20257;-78
2021/01/04 05:55:14;;;;;;;12.63;10.70;;;;;;;2.47;65.64;95050.50;5088144;28;20204;-78
2021/01/04 05:57:45;;;;;;;12.67;11.30;;;;;;;2.57;65.70;95050.44;5088281;28;20218;-80
2021/01/04 06:00:12;;;;;;;13.87;10.50;;;;;;;2.52;65.67;95055.94;5088664;28;20203;-80
2021/01/04 06:02:38;;;;;;;13.33;11.00;;;;;;;2.61;65.50;95050.03;5088184;28;20251;-81
2021/01/04 06:05:11;;;;;;;13.10;10.97;;;;;;;2.73;65.27;95045.56;5090510;28;20620;-81
2021/01/04 06:07:38;;;;;;;19.60;14.70;;;;;;;2.78;64.58;95059.44;5089344;28;20204;-79
2021/01/04 06:10:06;;;;;;;15.53;12.97;;;;;;;2.76;64.20;95063.06;5089745;28;20207;-79
2021/01/04 06:12:39;;;;;;;13.37;11.27;;;;;;;2.80;64.35;95063.59;5090823;28;20223;-79
2021/01/04 06:15:09;;;;;;;12.07;10.00;;;;;;;2.83;64.58;95051.41;5089056;28;20639;-78
2021/01/04 06:17:37;;;;;;;12.57;10.47;;;;;;;2.80;64.27;95061.03;5090123;28;20246;-80
2021/01/04 06:20:18;;;;;;;15.43;11.33;;;;;;;2.72;63.53;95057.47;5089613;28;20200;-80
2021/01/04 06:22:44;;;;;;;14.50;11.10;;;;;;;2.66;64.92;95059.78;5089454;28;20676;-79
2021/01/04 06:25:11;;;;;;;15.43;11.90;;;;;;;2.71;64.91;95058.41;5088387;28;20578;-77
2021/01/04 06:27:39;;;;;;;13.03;11.63;;;;;;;2.68;64.33;95060.44;5089643;28;20196;-80
2021/01/04 06:30:27;;;;;;;15.73;11.83;;;;;;;2.58;65.01;95054.59;5089961;28;20200;-80
2021/01/04 06:32:53;;;;;;;14.97;11.33;;;;;;;2.54;65.66;95063.44;5089578;28;20220;-80
2021/01/04 06:35:26;;;;;;;13.53;11.60;;;;;;;2.64;65.23;95059.94;5089427;28;20208;-78
2021/01/04 06:38:04;;;;;;;15.70;11.43;;;;;;;2.53;65.15;95059.28;5090253;28;20219;-79
2021/01/04 06:40:34;;;;;;;15.03;11.50;;;;;;;2.27;65.84;95067.56;5093088;28;20192;-79
2021/01/04 06:43:10;;;;;;;17.47;13.13;;;;;;;2.07;67.07;95055.84;5093647;28;20219;-78
2021/01/04 06:45:47;;;;;;;14.10;12.43;;;;;;;2.11;66.66;95056.38;5092463;28;20638;-77
2021/01/04 06:48:15;;;;;;;15.03;12.20;;;;;;;1.94;66.61;95065.47;5092715;28;20199;-78
2021/01/04 06:50:52;;;;;;;29.00;20.37;;;;;;;1.90;67.44;95062.44;5093624;28;20203;-78
2021/01/04 06:53:51;;;;;;;21.17;15.13;;;;;;;2.15;66.49;95060.22;5093325;28;20243;-80
2021/01/04 06:56:46;;;;;;;17.67;13.70;;;;;;;2.24;65.68;95064.50;5092289;28;20780;-79
2021/01/04 06:59:36;;;;;;;16.77;12.67;;;;;;;2.18;65.85;95065.84;5093176;28;20196;-78
2021/01/04 07:02:42;;;;;;;16.37;12.97;;;;;;;1.95;66.98;95069.63;5092951;28;20204;-79
2021/01/04 07:05:34;;;;;;;16.97;12.57;;;;;;;1.84;66.96;95065.50;5092258;28;20203;-77
2021/01/04 07:08:15;;;;;;;15.27;12.50;;;;;;;2.01;66.55;95056.38;5092288;28;20664;-80
2021/01/04 07:10:49;;;;;;;16.23;13.33;;;;;;;2.01;66.89;95064.00;5093260;28;20616;-80
2021/01/04 07:13:54;;;;;;;18.47;13.50;;;;;;;2.11;66.30;95061.47;5093198;28;20227;-78
2021/01/04 07:16:41;;;;;;;14.73;12.10;;;;;;;2.16;66.06;95066.91;5009985;28;20222;-78
2021/01/04 07:19:24;;;;;;;17.60;12.80;;;;;;;2.28;66.02;95079.31;5084484;28;20192;-80
2021/01/04 07:21:54;;;;;;;18.10;13.80;;;;;;;2.29;66.23;95077.56;5093122;28;20408;-77
2021/01/04 07:24:33;;;;;;;17.47;13.67;;;;;;;2.24;66.10;95074.66;5091761;28;20200;-78
2021/01/04 07:27:10;;;;;;;17.87;13.27;;;;;;;2.16;66.85;95075.31;5092742;28;20853;-80
2021/01/04 07:29:54;;;;;;;17.23;13.17;;;;;;;2.22;66.58;95074.78;5093136;28;20203;-81
2021/01/04 07:32:24;;;;;;;16.97;13.03;;;;;;;2.31;66.30;95084.09;5092221;28;20226;-80
2021/01/04 07:34:57;;;;;;;19.80;14.30;;;;;;;2.22;66.99;95084.94;5092209;28;20199;-80
2021/01/04 07:37:35;;;;;;;20.53;14.87;;;;;;;2.17;67.22;95092.16;5091766;28;20277;-79
2021/01/04 07:40:13;;;;;;;19.77;14.70;;;;;;;2.13;67.04;95090.81;5091994;28;20200;-80
2021/01/04 07:43:02;;;;;;;25.83;18.10;;;;;;;2.00;67.58;95093.66;5091913;28;20571;-79
2021/01/04 07:45:51;;;;;;;30.97;21.87;;;;;;;2.15;67.54;95091.50;5091525;28;20260;-76
2021/01/04 07:49:01;;;;;;;19.63;14.90;;;;;;;2.18;67.21;95096.31;5091382;28;20249;-80
2021/01/04 07:51:44;;;;;;;20.30;14.57;;;;;;;2.31;66.99;95094.25;5090930;28;20196;-79
2021/01/04 07:54:49;;;;;;;20.67;14.53;;;;;;;2.32;66.71;95093.31;5091112;28;20788;-78
2021/01/04 07:57:50;;;;;;;19.67;14.27;;;;;;;2.17;67.19;95098.97;5091460;28;20333;-79
2021/01/04 08:00:45;;;;;;;20.10;14.33;;;;;;;2.16;67.39;95103.25;5090959;28;20202;-79
2021/01/04 08:03:42;;;;;;;21.57;14.97;;;;;;;2.32;67.10;95100.94;5090876;28;20220;-78
2021/01/04 08:06:24;;;;;;;19.67;14.43;;;;;;;2.39;66.44;95091.84;5091265;28;20254;-78
2021/01/04 08:09:04;;;;;;;20.57;15.40;;;;;;;2.45;66.51;95095.56;5092096;28;20200;-79
2021/01/04 08:11:55;;;;;;;21.03;15.20;;;;;;;2.47;65.74;95088.63;5090908;28;20207;-80
2021/01/04 08:14:47;;;;;;;20.17;15.37;;;;;;;2.46;66.42;95092.09;5091710;28;20223;-80
2021/01/04 08:17:19;;;;;;;20.60;14.90;;;;;;;2.28;67.09;95086.94;5089564;28;20773;-77
2021/01/04 08:19:48;;;;;;;19.97;14.97;;;;;;;2.42;67.07;95098.38;5090520;28;20200;-77
2021/01/04 08:23:04;;;;;;;20.63;15.70;;;;;;;2.52;66.64;95103.41;5090937;28;20223;-78
2021/01/04 08:25:44;;;;;;;30.40;21.20;;;;;;;2.30;67.23;95099.50;5027351;28;20260;-77
2021/01/04 08:28:22;;;;;;;21.83;15.97;;;;;;;2.01;67.87;95102.09;5027619;28;20198;-80
2021/01/04 08:30:56;;;;;;;22.90;16.10;;;;;;;2.05;67.60;95108.50;5061078;28;20574;-78
2021/01/04 08:33:29;;;;;;;20.73;14.67;;;;;;;2.03;67.85;95108.63;5091060;28;20604;-77
2021/01/04 08:35:55;;;;;;;21.40;15.40;;;;;;;2.14;67.67;95111.94;5087216;28;20195;-77
2021/01/04 08:38:38;;;;;;;20.53;14.97;;;;;;;1.96;68.22;95107.56;5090480;28;20234;-78
2021/01/04 08:41:23;;;;;;;21.60;15.20;;;;;;;1.83;69.07;95112.13;5091215;28;20196;-80
2021/01/04 08:43:51;;;;;;;21.60;15.83;;;;;;;1.73;68.77;95116.41;5090778;28;20223;-80
2021/01/04 08:46:27;;;;;;;23.80;15.90;;;;;;;1.86;68.40;95118.69;5089475;28;20220;-79
2021/01/04 08:48:55;;;;;;;21.47;15.30;;;;;;;2.05;68.22;95111.84;5090905;28;20203;-79
2021/01/04 08:51:33;;;;;;;22.17;16.00;;;;;;;2.21;67.53;95116.34;5091233;28;20200;-78
2021/01/04 08:54:03;;;;;;;21.27;15.70;;;;;;;2.17;67.52;95120.09;5090359;28;20270;-79
2021/01/04 08:56:34;;;;;;;21.13;15.77;;;;;;;2.08;67.22;95116.66;5090087;28;20211;-79
2021/01/04 08:59:10;;;;;;;25.60;15.93;;;;;;;1.96;67.86;95122.00;5090512;28;20305;-78
2021/01/04 09:01:36;;;;;;;23.43;15.87;;;;;;;1.93;68.51;95119.72;5089422;28;20286;-78
2021/01/04 09:04:06;;;;;;;21.10;15.90;;;;;;;1.78;68.80;95113.47;5090122;28;20273;-81
2021/01/04 09:06:34;;;;;;;22.67;15.80;;;;;;;1.67;69.76;95122.81;5090637;28;20257;-79
2021/01/04 09:09:14;;;;;;;22.33;15.57;;;;;;;1.69;69.92;95125.22;5090814;28;20576;-78
2021/01/04 09:11:56;;;;;;;21.87;16.00;;;;;;;1.69;69.84;95127.75;5090397;28;20328;-79
2021/01/04 09:14:26;;;;;;;19.67;14.90;;;;;;;1.76;69.86;95125.47;5090233;28;20200;-78
2021/01/04 09:16:52;;;;;;;21.03;15.70;;;;;;;1.79;69.36;95115.88;5090019;28;20234;-78
2021/01/04 09:19:23;;;;;;;22.13;15.80;;;;;;;1.92;69.06;95115.59;5090213;28;20196;-80
2021/01/04 09:21:50;;;;;;;22.30;15.80;;;;;;;1.94;69.16;95116.25;5090563;28;20204;-80
2021/01/04 09:24:32;;;;;;;23.00;15.77;;;;;;;1.95;68.94;95112.78;5089945;28;20204;-78
2021/01/04 09:27:03;;;;;;;21.07;15.77;;;;;;;1.84;69.16;95113.72;5088792;28;20392;-77
2021/01/04 09:29:32;;;;;;;23.50;15.77;;;;;;;1.83;69.23;95116.41;5089680;28;20689;-77
2021/01/04 09:32:04;;;;;;;22.17;15.73;;;;;;;1.77;69.50;95111.84;5090440;28;20591;-80
2021/01/04 09:34:31;;;;;;;21.13;14.93;;;;;;;1.62;69.74;95112.25;5090112;28;20203;-80
2021/01/04 09:37:04;;;;;;;21.47;15.37;;;;;;;1.57;70.86;95116.94;5090003;28;20223;-80
2021/01/04 09:39:32;;;;;;;23.87;16.23;;;;;;;1.51;70.57;95109.88;5090543;28;20245;-81
2021/01/04 09:42:01;;;;;;;23.23;16.60;;;;;;;1.64;70.63;95112.13;5090366;28;20392;-80
2021/01/04 09:44:27;;;;;;;23.43;16.00;;;;;;;1.79;70.14;95099.84;5089551;28;20258;-80
2021/01/04 09:46:57;;;;;;;23.20;16.43;;;;;;;1.96;69.49;95102.50;5089846;28;20257;-81
2021/01/04 09:49:27;;;;;;;23.00;16.40;;;;;;;2.05;69.31;95105.97;5090095;28;20833;-80
2021/01/04 09:51:59;;;;;;;23.50;16.57;;;;;;;2.02;69.13;95101.16;5090052;28;20618;-79
2021/01/04 09:54:30;;;;;;;22.40;15.80;;;;;;;1.91;69.36;95098.78;5089291;28;20222;-78
2021/01/04 09:57:01;;;;;;;22.47;15.43;;;;;;;1.78;70.01;95103.31;5089191;28;20572;-78
2021/01/04 09:59:28;;;;;;;22.33;16.07;;;;;;;1.69;69.89;95105.72;5089984;28;20294;-80
2021/01/04 10:01:57;;;;;;;23.10;15.80;;;;;;;1.69;70.09;95108.28;5089530;28;20257;-78
2021/01/04 10:04:26;;;;;;;21.50;15.70;;;;;;;1.79;70.14;95097.28;5089273;28;20203;-78
2021/01/04 10:06:52;;;;;;;21.93;15.73;;;;;;;1.92;69.26;95103.72;5090149;28;20203;-80
2021/01/04 10:09:19;;;;;;;21.53;15.13;;;;;;;2.02;68.86;95096.88;5089803;28;20597;-80
2021/01/04 10:11:48;;;;;;;24.13;16.03;;;;;;;2.10;68.30;95100.47;5090132;28;20204;-81
2021/01/04 10:14:19;;;;;;;22.60;16.10;;;;;;;2.00;68.81;95097.94;5093293;28;20192;-80
2021/01/04 10:16:50;;;;;;;25.53;16.60;;;;;;;1.76;69.93;95098.38;5093944;28;20664;-79
2021/01/04 10:19:22;;;;;;;23.27;16.17;;;;;;;1.74;70.21;95088.34;5093445;28;20203;-80
2021/01/04 10:21:58;;;;;;;26.87;18.37;;;;;;;1.67;70.16;95094.09;5094386;28;20207;-77
2021/01/04 10:24:27;;;;;;;23.47;16.17;;;;;;;1.44;71.68;95092.75;5092988;28;20203;-80
2021/01/04 10:26:53;;;;;;;23.87;16.87;;;;;;;1.36;71.80;95086.63;5092981;28;20577;-79
2021/01/04 10:29:22;;;;;;;23.90;17.10;;;;;;;1.50;72.23;95098.13;5093011;28;20999;-80
2021/01/04 10:31:51;;;;;;;22.77;16.70;;;;;;;1.43;72.38;95093.69;5093146;28;20261;-79
2021/01/04 10:34:19;;;;;;;22.77;16.13;;;;;;;1.42;72.22;95090.38;5092950;28;20218;-79
2021/01/04 10:36:56;;;;;;;24.40;16.93;;;;;;;1.39;71.77;95086.34;5092626;28;20235;-79
2021/01/04 10:39:28;;;;;;;24.93;16.23;;;;;;;1.46;72.18;95084.09;5092692;28;20215;-79
2021/01/04 10:42:05;;;;;;;24.57;17.00;;;;;;;1.44;72.05;95072.47;5092448;28;20196;-80
2021/01/04 10:44:32;;;;;;;23.93;16.53;;;;;;;1.43;72.24;95071.69;5092437;28;20200;-78
2021/01/04 10:47:02;;;;;;;24.07;16.87;;;;;;;1.36;72.21;95065.53;5093200;28;20721;-80
2021/01/04 10:49:32;;;;;;;25.70;16.87;;;;;;;1.45;72.04;95062.19;5092812;28;20214;-79
2021/01/04 10:51:58;;;;;;;24.97;16.97;;;;;;;1.52;71.78;95055.66;5092460;28;20204;-80
2021/01/04 10:54:37;;;;;;;22.00;15.73;;;;;;;1.45;72.04;95049.53;5092130;28;20219;-79
2021/01/04 10:57:13;;;;;;;22.60;15.60;;;;;;;1.39;72.13;95045.78;5093358;28;20231;-80
2021/01/04 10:59:44;;;;;;;33.90;22.90;;;;;;;1.33;72.72;95045.53;5092648;28;20208;-80
2021/01/04 11:02:10;;;;;;;28.70;17.07;;;;;;;1.23;72.50;95052.31;5092982;28;20293;-80
2021/01/04 11:04:38;;;;;;;24.93;17.23;;;;;;;1.15;73.18;95045.38;5092870;28;20930;-80
2021/01/04 11:07:17;;;;;;;23.17;16.97;;;;;;;1.19;73.52;95038.28;5092921;28;20235;-78
2021/01/04 11:09:44;;;;;;;24.40;17.20;;;;;;;1.22;72.71;95038.03;5092861;28;20269;-80
2021/01/04 11:12:13;;;;;;;23.77;17.10;;;;;;;1.25;72.60;95040.31;5093587;28;20235;-80
2021/01/04 11:14:52;;;;;;;24.10;17.27;;;;;;;1.23;72.71;95037.91;5092728;28;20206;-81
2021/01/04 11:17:21;;;;;;;28.00;17.10;;;;;;;1.30;72.88;95038.97;5092016;28;20226;-77
2021/01/04 11:19:48;;;;;;;26.70;17.73;;;;;;;1.34;72.72;95020.03;5093031;28;20200;-79
2021/01/04 11:22:20;;;;;;;24.40;17.10;;;;;;;1.44;72.28;95026.81;5092618;28;20212;-80
2021/01/04 11:24:46;;;;;;;25.60;17.93;;;;;;;1.51;71.92;95020.28;5091866;28;20569;-80
2021/01/04 11:27:13;;;;;;;24.83;17.47;;;;;;;1.48;71.85;95023.09;5092348;28;20242;-79
2021/01/04 11:29:41;;;;;;;24.87;17.97;;;;;;;1.55;72.03;95024.13;5092377;28;20221;-78
2021/01/04 11:32:08;;;;;;;26.70;18.70;;;;;;;1.55;71.75;95027.47;5092725;28;20204;-81
2021/01/04 11:34:35;;;;;;;27.87;18.93;;;;;;;1.57;72.08;95025.59;5092166;28;20196;-79
2021/01/04 11:37:01;;;;;;;26.30;18.17;;;;;;;1.42;72.83;95031.22;5092763;28;20223;-81
2021/01/04 11:39:27;;;;;;;24.60;18.50;;;;;;;1.40;72.93;95033.91;5092082;28;20200;-78
2021/01/04 11:41:53;;;;;;;27.07;18.50;;;;;;;1.56;72.28;95031.59;5093487;28;20231;-83
2021/01/04 11:44:19;;;;;;;28.53;19.67;;;;;;;1.55;72.30;95024.13;5092071;28;20204;-80
2021/01/04 11:46:46;;;;;;;28.93;20.53;;;;;;;1.43;72.97;95027.75;5092027;28;20208;-79
2021/01/04 11:49:12;;;;;;;29.43;20.33;;;;;;;1.33;72.76;95031.13;5091839;28;20203;-80
2021/01/04 11:51:38;;;;;;;26.83;20.10;;;;;;;1.30;73.27;95022.97;5092325;28;20591;-81
2021/01/04 11:54:05;;;;;;;28.00;19.63;;;;;;;1.07;73.63;95024.97;5092774;28;20255;-80
2021/01/04 11:56:32;;;;;;;28.40;19.67;;;;;;;1.00;73.84;95027.22;5091190;28;20683;-83
2021/01/04 11:58:59;;;;;;;30.80;20.87;;;;;;;1.04;74.61;95017.63;5091937;28;20224;-81
2021/01/04 12:01:25;;;;;;;32.93;21.17;;;;;;;1.08;74.42;95018.16;5091651;28;20257;-80
2021/01/04 12:03:53;;;;;;;27.83;19.60;;;;;;;1.14;74.26;95015.09;5091463;28;20216;-80